createdAt,value
2018-05-25T00:02:24.135Z,17.50
2018-05-25T00:04:51.727Z,17.50
2018-05-25T00:07:20.056Z,17.60
2018-05-25T00:09:47.615Z,17.50
2018-05-25T00:12:15.194Z,17.60
2018-05-25T00:14:42.749Z,17.60
2018-05-25T00:17:11.067Z,17.60
2018-05-25T00:19:38.643Z,17.60
2018-05-25T00:22:06.201Z,17.70
2018-05-25T00:24:33.758Z,17.70
2018-05-25T00:27:01.354Z,17.70
2018-05-25T00:29:28.916Z,17.60
2018-05-25T00:31:56.476Z,17.60
2018-05-25T00:34:24.064Z,17.60
2018-05-25T00:36:51.614Z,17.50
2018-05-25T00:39:19.930Z,17.50
2018-05-25T00:41:47.514Z,17.50
2018-05-25T00:44:15.065Z,17.50
2018-05-25T00:46:42.639Z,17.50
2018-05-25T00:49:10.232Z,17.50
2018-05-25T00:51:38.598Z,17.50
2018-05-25T00:54:06.166Z,17.50
2018-05-25T00:56:33.742Z,17.50
2018-05-25T00:59:01.295Z,17.40
2018-05-25T01:01:29.620Z,17.40
2018-05-25T01:03:57.209Z,17.30
2018-05-25T01:06:24.769Z,17.30
2018-05-25T01:08:52.342Z,17.30
2018-05-25T01:11:19.929Z,17.30
2018-05-25T01:13:47.501Z,17.20
2018-05-25T01:16:15.054Z,17.20
2018-05-25T01:18:42.638Z,17.20
2018-05-25T01:21:10.203Z,17.20
2018-05-25T01:23:37.758Z,17.20
2018-05-25T01:26:05.334Z,17.10
2018-05-25T01:28:32.905Z,17.10
2018-05-25T01:31:00.454Z,17.10
2018-05-25T01:33:28.793Z,17.00
2018-05-25T01:35:56.342Z,17.00
2018-05-25T01:38:23.913Z,17.00
2018-05-25T01:40:51.498Z,17.00
2018-05-25T01:43:19.046Z,17.00
2018-05-25T01:45:47.369Z,17.00
2018-05-25T01:48:14.948Z,17.00
2018-05-25T01:50:42.503Z,17.10
2018-05-25T01:53:10.058Z,17.10
2018-05-25T01:55:38.409Z,17.20
2018-05-25T01:58:05.958Z,17.10
2018-05-25T02:00:33.509Z,17.20
2018-05-25T02:03:01.086Z,17.20
2018-05-25T02:05:28.634Z,17.20
2018-05-25T02:07:56.958Z,17.20
2018-05-25T02:10:24.551Z,17.20
2018-05-25T02:12:52.168Z,17.20
2018-05-25T02:15:20.491Z,17.30
2018-05-25T02:17:48.075Z,17.20
2018-05-25T02:20:15.636Z,17.30
2018-05-25T02:22:43.200Z,17.20
2018-05-25T02:25:10.786Z,17.20
2018-05-25T02:27:38.345Z,17.20
2018-05-25T02:30:05.905Z,17.10
2018-05-25T02:32:33.481Z,17.10
2018-05-25T02:35:01.039Z,17.10
2018-05-25T02:37:29.354Z,17.00
2018-05-25T02:39:56.946Z,16.90
2018-05-25T02:42:24.515Z,17.00
2018-05-25T02:44:52.071Z,16.90
2018-05-25T02:47:19.647Z,16.90
2018-05-25T02:49:47.193Z,16.90
2018-05-25T02:52:15.510Z,16.80
2018-05-25T02:54:43.095Z,16.80
2018-05-25T02:57:10.709Z,16.80
2018-05-25T02:59:38.230Z,16.90
2018-05-25T03:02:05.824Z,16.80
2018-05-25T03:04:33.382Z,16.80
2018-05-25T03:07:00.935Z,16.80
2018-05-25T03:09:28.564Z,16.80
2018-05-25T03:11:56.132Z,16.80
2018-05-25T03:14:23.686Z,16.90
2018-05-25T03:16:51.349Z,16.90
2018-05-25T03:19:19.634Z,16.80
2018-05-25T03:21:47.195Z,16.80
2018-05-25T03:24:14.774Z,16.80
2018-05-25T03:26:42.336Z,16.70
2018-05-25T03:29:09.887Z,16.70
2018-05-25T03:31:38.226Z,16.70
2018-05-25T03:34:05.781Z,16.60
2018-05-25T03:36:33.331Z,16.80
2018-05-25T03:39:01.689Z,16.70
2018-05-25T03:41:29.247Z,16.60
2018-05-25T03:43:56.800Z,16.70
2018-05-25T03:46:24.390Z,16.80
2018-05-25T03:48:51.943Z,16.80
2018-05-25T03:51:19.502Z,16.70
2018-05-25T03:53:47.108Z,16.70
2018-05-25T03:56:14.662Z,16.70
2018-05-25T03:58:54.222Z,16.60
2018-05-25T04:01:33.718Z,16.60
2018-05-25T04:04:01.258Z,16.70
2018-05-25T04:06:28.823Z,16.70
2018-05-25T04:08:56.380Z,16.80
2018-05-25T04:11:25.567Z,16.90
2018-05-25T04:13:53.153Z,17.00
2018-05-25T04:16:20.705Z,17.10
2018-05-25T04:18:49.050Z,17.10
2018-05-25T04:21:16.607Z,17.00
2018-05-25T04:23:44.162Z,17.10
2018-05-25T04:26:11.743Z,17.10
2018-05-25T04:28:39.307Z,17.10
2018-05-25T04:31:06.863Z,17.20
2018-05-25T04:33:35.206Z,17.00
2018-05-25T04:36:02.751Z,16.90
2018-05-25T04:38:30.307Z,17.00
2018-05-25T04:40:59.216Z,17.00
2018-05-25T04:43:26.877Z,17.00
2018-05-25T04:45:55.737Z,17.00
2018-05-25T04:48:23.319Z,17.00
2018-05-25T04:50:50.896Z,16.90
2018-05-25T04:53:18.454Z,16.90
2018-05-25T04:55:46.042Z,16.80
2018-05-25T04:58:13.592Z,16.80
2018-05-25T05:00:41.146Z,16.80
2018-05-25T05:03:08.727Z,16.80
2018-05-25T05:05:36.283Z,16.90
2018-05-25T05:08:03.834Z,17.20
2018-05-25T05:10:32.178Z,17.90
2018-05-25T05:12:59.739Z,17.80
2018-05-25T05:15:27.304Z,17.90
2018-05-25T05:17:54.901Z,18.20
2018-05-25T05:20:22.466Z,18.30
2018-05-25T05:22:50.024Z,18.50
2018-05-25T05:25:17.604Z,18.60
2018-05-25T05:27:45.179Z,18.80
2018-05-25T05:30:12.826Z,19.00
2018-05-25T05:32:40.426Z,19.20
2018-05-25T05:35:08.044Z,19.30
2018-05-25T05:37:36.372Z,19.60
2018-05-25T05:40:03.943Z,19.60
2018-05-25T05:42:31.518Z,19.80
2018-05-25T05:44:59.087Z,19.90
2018-05-25T05:47:26.661Z,20.10
2018-05-25T05:49:54.254Z,20.20
2018-05-25T05:52:21.813Z,20.40
2018-05-25T05:54:49.395Z,20.40
2018-05-25T05:57:16.941Z,20.50
2018-05-25T05:59:44.490Z,20.70
2018-05-25T06:02:12.846Z,21.00
2018-05-25T06:04:40.406Z,20.90
2018-05-25T06:07:07.953Z,21.10
2018-05-25T06:09:35.527Z,21.30
2018-05-25T06:12:03.082Z,21.60
2018-05-25T06:14:31.398Z,22.30
2018-05-25T06:16:58.982Z,22.30
2018-05-25T06:19:26.536Z,22.60
2018-05-25T06:21:54.102Z,23.10
2018-05-25T06:24:21.687Z,23.20
2018-05-25T06:26:49.234Z,23.20
2018-05-25T06:29:17.555Z,23.40
2018-05-25T06:31:45.144Z,23.40
2018-05-25T06:34:12.713Z,23.60
2018-05-25T06:36:40.279Z,24.30
2018-05-25T06:39:07.865Z,25.40
2018-05-25T06:41:35.409Z,26.00
2018-05-25T06:44:02.963Z,26.90
2018-05-25T06:46:31.312Z,27.60
2018-05-25T06:48:58.868Z,27.50
2018-05-25T06:51:26.418Z,27.80
2018-05-25T06:53:53.994Z,27.00
2018-05-25T06:56:21.550Z,26.30
2018-05-25T06:58:49.103Z,26.00
2018-05-25T07:01:17.443Z,26.60
2018-05-25T07:03:44.986Z,26.60
2018-05-25T07:06:12.534Z,26.20
2018-05-25T07:08:40.968Z,24.20
2018-05-25T07:11:08.527Z,24.00
2018-05-25T07:13:36.105Z,23.70
2018-05-25T07:16:03.687Z,23.90
2018-05-25T07:18:31.252Z,24.00
2018-05-25T07:20:58.807Z,24.40
2018-05-25T07:23:27.150Z,24.30
2018-05-25T07:25:54.702Z,24.30
2018-05-25T07:28:22.278Z,24.20
2018-05-25T07:30:49.852Z,24.60
2018-05-25T07:33:17.411Z,24.40
2018-05-25T07:35:44.966Z,24.60
2018-05-25T07:38:12.550Z,24.70
2018-05-25T07:40:40.137Z,24.90
2018-05-25T07:43:07.691Z,25.20
2018-05-25T07:45:35.266Z,24.90
2018-05-25T07:48:02.823Z,25.10
2018-05-25T07:50:31.139Z,25.50
2018-05-25T07:52:58.726Z,25.40
2018-05-25T07:55:26.271Z,25.70
2018-05-25T07:57:53.843Z,26.20
2018-05-25T08:00:21.430Z,26.20
2018-05-25T08:02:48.998Z,25.70
2018-05-25T08:05:16.551Z,26.20
2018-05-25T08:07:44.892Z,26.20
2018-05-25T08:10:12.446Z,26.20
2018-05-25T08:12:40.010Z,26.70
2018-05-25T08:15:07.595Z,27.90
2018-05-25T08:17:35.173Z,28.20
2018-05-25T08:20:02.726Z,28.20
2018-05-25T08:22:30.306Z,28.50
2018-05-25T08:24:57.845Z,29.00
2018-05-25T08:27:26.164Z,28.60
2018-05-25T08:29:53.742Z,28.50
2018-05-25T08:32:21.297Z,28.60
2018-05-25T08:34:48.842Z,28.10
2018-05-25T08:37:17.211Z,29.00
2018-05-25T08:39:44.762Z,28.90
2018-05-25T08:42:12.302Z,28.60
2018-05-25T08:44:39.880Z,28.30
2018-05-25T08:47:07.427Z,27.90
2018-05-25T08:49:35.742Z,28.40
2018-05-25T08:52:03.323Z,28.40
2018-05-25T08:54:30.866Z,28.80
2018-05-25T08:56:59.175Z,29.80
2018-05-25T08:59:26.766Z,29.80
2018-05-25T09:01:54.306Z,29.80
2018-05-25T09:04:22.614Z,30.10
2018-05-25T09:06:50.299Z,30.10
2018-05-25T09:09:17.762Z,29.90
2018-05-25T09:11:45.310Z,28.60
2018-05-25T09:14:12.891Z,29.30
2018-05-25T09:16:40.464Z,29.40
2018-05-25T09:19:08.011Z,28.70
2018-05-25T09:21:36.359Z,29.30
2018-05-25T09:24:03.924Z,29.20
2018-05-25T09:26:31.471Z,30.20
2018-05-25T09:28:59.047Z,30.30
2018-05-25T09:31:26.599Z,29.90
2018-05-25T09:33:54.921Z,29.80
2018-05-25T09:36:22.536Z,29.80
2018-05-25T09:38:50.087Z,29.00
2018-05-25T09:41:17.656Z,28.20
2018-05-25T09:43:45.231Z,28.80
2018-05-25T09:46:12.778Z,29.20
2018-05-25T09:48:40.336Z,30.60
2018-05-25T09:51:07.918Z,30.10
2018-05-25T09:53:35.475Z,30.40
2018-05-25T09:56:03.839Z,31.50
2018-05-25T09:58:31.389Z,31.40
2018-05-25T10:00:58.936Z,31.60
2018-05-25T10:03:26.487Z,31.00
2018-05-25T10:05:54.830Z,30.30
2018-05-25T10:08:22.374Z,30.20
2018-05-25T10:10:49.930Z,31.00
2018-05-25T10:13:17.502Z,31.50
2018-05-25T10:15:45.049Z,30.70
2018-05-25T10:18:12.601Z,30.00
2018-05-25T10:20:40.194Z,29.90
2018-05-25T10:23:07.755Z,30.50
2018-05-25T10:25:35.306Z,30.10
2018-05-25T10:28:02.880Z,30.20
2018-05-25T10:30:30.422Z,30.60
2018-05-25T10:32:57.998Z,30.60
2018-05-25T10:35:25.566Z,29.40
2018-05-25T10:37:53.168Z,29.60
2018-05-25T10:40:20.753Z,30.00
2018-05-25T10:42:48.321Z,30.30
2018-05-25T10:45:15.874Z,30.70
2018-05-25T10:47:43.414Z,31.00
2018-05-25T10:50:11.760Z,29.90
2018-05-25T10:52:39.318Z,29.80
2018-05-25T10:55:06.871Z,29.20
2018-05-25T10:57:34.442Z,29.30
2018-05-25T11:00:01.977Z,29.50
2018-05-25T11:02:30.290Z,28.60
2018-05-25T11:04:57.904Z,28.60
2018-05-25T11:07:25.466Z,28.60
2018-05-25T11:09:53.028Z,28.80
2018-05-25T11:12:20.647Z,29.00
2018-05-25T11:14:48.194Z,29.20
2018-05-25T11:17:15.746Z,29.80
2018-05-25T11:19:43.310Z,30.00
2018-05-25T11:22:10.854Z,29.80
2018-05-25T11:24:39.163Z,28.80
2018-05-25T11:27:06.773Z,28.70
2018-05-25T11:29:34.314Z,29.50
2018-05-25T11:32:01.862Z,29.90
2018-05-25T11:34:30.225Z,29.40
2018-05-25T11:36:57.773Z,29.30
2018-05-25T11:39:25.320Z,29.00
2018-05-25T11:41:52.893Z,27.70
2018-05-25T11:44:20.444Z,27.30
2018-05-25T11:46:48.758Z,27.10
2018-05-25T11:49:16.326Z,27.00
2018-05-25T11:51:43.874Z,27.00
2018-05-25T11:54:12.178Z,26.80
2018-05-25T11:56:40.511Z,26.80
2018-05-25T11:59:08.053Z,26.80
2018-05-25T12:01:35.603Z,26.90
2018-05-25T12:04:03.943Z,26.00
2018-05-25T12:06:31.548Z,26.00
2018-05-25T12:08:59.078Z,25.80
2018-05-25T12:11:26.674Z,26.00
2018-05-25T12:13:54.291Z,25.90
2018-05-25T12:16:22.612Z,26.00
2018-05-25T12:18:50.179Z,25.90
2018-05-25T12:21:17.740Z,26.20
2018-05-25T12:23:45.285Z,26.30
2018-05-25T12:26:13.632Z,26.00
2018-05-25T12:28:41.223Z,25.90
2018-05-25T12:31:08.767Z,26.30
2018-05-25T12:33:36.364Z,26.50
2018-05-25T12:36:03.910Z,26.60
2018-05-25T12:38:31.458Z,26.90
2018-05-25T12:40:59.794Z,26.60
2018-05-25T12:43:27.347Z,26.60
2018-05-25T12:45:54.891Z,26.60
2018-05-25T12:48:23.248Z,26.40
2018-05-25T12:50:50.805Z,26.40
2018-05-25T12:53:18.363Z,26.50
2018-05-25T12:55:45.951Z,26.50
2018-05-25T12:58:13.500Z,26.60
2018-05-25T13:00:41.061Z,26.70
2018-05-25T13:03:08.642Z,27.00
2018-05-25T13:05:36.226Z,27.00
2018-05-25T13:08:03.766Z,26.80
2018-05-25T13:10:32.106Z,26.30
2018-05-25T13:12:59.649Z,26.30
2018-05-25T13:15:27.195Z,26.30
2018-05-25T13:17:55.552Z,26.00
2018-05-25T13:20:23.102Z,26.00
2018-05-25T13:22:50.648Z,25.80
2018-05-25T13:25:18.239Z,25.80
2018-05-25T13:27:45.792Z,25.90
2018-05-25T13:30:13.342Z,26.20
2018-05-25T13:32:41.693Z,26.40
2018-05-25T13:35:09.262Z,26.40
2018-05-25T13:37:36.810Z,26.40
2018-05-25T13:40:04.386Z,26.30
2018-05-25T13:42:31.950Z,26.40
2018-05-25T13:44:59.501Z,26.40
2018-05-25T13:47:27.842Z,26.20
2018-05-25T13:49:55.403Z,26.20
2018-05-25T13:52:22.962Z,26.40
2018-05-25T13:54:50.534Z,26.40
2018-05-25T13:57:18.083Z,26.60
2018-05-25T13:59:45.639Z,26.50
2018-05-25T14:02:13.226Z,26.50
2018-05-25T14:04:41.544Z,26.40
2018-05-25T14:07:09.090Z,26.40
2018-05-25T14:09:36.686Z,26.50
2018-05-25T14:12:04.242Z,26.60
2018-05-25T14:14:31.819Z,26.50
2018-05-25T14:16:59.389Z,26.40
2018-05-25T14:19:26.943Z,26.20
2018-05-25T14:21:55.258Z,26.10
2018-05-25T14:24:22.843Z,26.10
2018-05-25T14:26:50.396Z,26.00
2018-05-25T14:29:17.947Z,26.00
2018-05-25T14:31:45.517Z,25.90
2018-05-25T14:34:13.063Z,25.90
2018-05-25T14:36:40.610Z,26.10
2018-05-25T14:39:08.191Z,26.10
2018-05-25T14:41:35.729Z,26.20
2018-05-25T14:44:03.287Z,26.10
2018-05-25T14:46:31.644Z,26.00
2018-05-25T14:48:59.211Z,26.00
2018-05-25T14:51:26.793Z,26.00
2018-05-25T14:53:54.417Z,26.00
2018-05-25T14:56:22.714Z,26.10
2018-05-25T14:58:50.267Z,26.00
2018-05-25T15:01:17.878Z,26.20
2018-05-25T15:03:45.426Z,26.20
2018-05-25T15:06:12.980Z,26.30
2018-05-25T15:08:41.350Z,26.30
2018-05-25T15:11:08.899Z,26.30
2018-05-25T15:13:36.448Z,26.40
2018-05-25T15:16:04.016Z,26.30
2018-05-25T15:18:31.618Z,26.20
2018-05-25T15:20:59.171Z,26.10
2018-05-25T15:23:26.762Z,26.10
2018-05-25T15:25:54.318Z,26.10
2018-05-25T15:28:21.861Z,26.10
2018-05-25T15:30:50.297Z,26.20
2018-05-25T15:33:17.790Z,26.20
2018-05-25T15:35:45.338Z,26.30
2018-05-25T15:38:12.930Z,26.20
2018-05-25T15:40:40.504Z,26.20
2018-05-25T15:43:08.079Z,26.10
2018-05-25T15:45:35.670Z,25.90
2018-05-25T15:48:03.246Z,25.90
2018-05-25T15:50:30.824Z,25.80
2018-05-25T15:52:58.433Z,25.80
2018-05-25T15:55:25.975Z,25.70
2018-05-25T15:57:54.287Z,25.70
2018-05-25T16:00:21.863Z,25.60
2018-05-25T16:02:49.407Z,25.60
2018-05-25T16:05:16.954Z,25.60
2018-05-25T16:07:44.530Z,25.60
2018-05-25T16:10:12.082Z,25.50
2018-05-25T16:12:39.631Z,25.60
2018-05-25T16:15:07.208Z,25.60
2018-05-25T16:17:34.755Z,25.50
2018-05-25T16:20:03.080Z,25.40
2018-05-25T16:22:30.706Z,25.40
2018-05-25T16:24:58.273Z,25.40
2018-05-25T16:27:25.831Z,25.20
2018-05-25T16:29:53.406Z,25.10
2018-05-25T16:32:20.947Z,25.00
2018-05-25T16:34:48.737Z,25.00
2018-05-25T16:37:16.440Z,25.00
2018-05-25T16:39:44.200Z,24.90
2018-05-25T16:42:11.973Z,24.80
2018-05-25T16:44:39.573Z,24.80
2018-05-25T16:47:07.914Z,24.60
2018-05-25T16:49:35.484Z,24.60
2018-05-25T16:52:03.058Z,24.70
2018-05-25T16:54:30.643Z,24.70
2018-05-25T16:56:58.190Z,24.70
2018-05-25T16:59:25.974Z,24.60
2018-05-25T17:01:53.529Z,24.50
2018-05-25T17:04:24.409Z,24.50
2018-05-25T17:06:52.913Z,24.40
2018-05-25T17:09:20.725Z,24.40
2018-05-25T17:11:48.338Z,24.40
2018-05-25T17:14:16.858Z,24.30
2018-05-25T17:16:44.645Z,24.20
2018-05-25T17:19:14.385Z,24.30
2018-05-25T17:21:41.974Z,24.30
2018-05-25T17:24:09.539Z,24.20
2018-05-25T17:26:37.715Z,24.30
2018-05-25T17:29:05.419Z,24.20
2018-05-25T17:31:33.052Z,24.20
2018-05-25T17:34:00.612Z,24.10
2018-05-25T17:36:29.179Z,24.00
2018-05-25T17:38:57.826Z,23.90
2018-05-25T17:41:28.524Z,23.90
2018-05-25T17:43:56.106Z,23.80
2018-05-25T17:46:23.663Z,23.60
2018-05-25T17:48:51.247Z,23.50
2018-05-25T17:51:18.948Z,23.40
2018-05-25T17:53:47.266Z,23.20
2018-05-25T17:56:15.085Z,23.10
2018-05-25T17:58:43.133Z,23.10
2018-05-25T18:01:10.755Z,23.10
2018-05-25T18:03:38.610Z,22.90
2018-05-25T18:06:06.166Z,22.80
2018-05-25T18:08:36.403Z,22.80
2018-05-25T18:11:04.072Z,22.60
2018-05-25T18:13:31.628Z,22.50
2018-05-25T18:16:00.022Z,22.40
2018-05-25T18:18:28.357Z,22.30
2018-05-25T18:20:55.906Z,22.20
2018-05-25T18:23:23.505Z,22.20
2018-05-25T18:25:51.138Z,22.20
2018-05-25T18:28:18.732Z,22.00
2018-05-25T18:30:46.326Z,21.90
2018-05-25T18:33:13.897Z,21.80
2018-05-25T18:35:41.771Z,21.70
2018-05-25T18:38:09.992Z,21.60
2018-05-25T18:40:37.983Z,21.50
2018-05-25T18:43:06.464Z,21.30
2018-05-25T18:45:34.050Z,21.30
2018-05-25T18:48:01.641Z,21.30
2018-05-25T18:50:29.958Z,21.10
2018-05-25T18:52:57.651Z,21.00
2018-05-25T18:55:25.243Z,20.90
2018-05-25T18:57:52.840Z,20.80
2018-05-25T19:00:20.418Z,20.70
2018-05-25T19:02:48.429Z,20.70
2018-05-25T19:05:16.076Z,20.60
2018-05-25T19:07:44.094Z,20.50
2018-05-25T19:10:12.050Z,20.50
2018-05-25T19:12:39.638Z,20.40
2018-05-25T19:15:07.973Z,20.20
2018-05-25T19:17:35.664Z,20.10
2018-05-25T19:20:04.030Z,20.00
2018-05-25T19:22:31.589Z,19.90
2018-05-25T19:24:59.171Z,19.90
2018-05-25T19:27:26.743Z,19.80
2018-05-25T19:29:54.299Z,19.80
2018-05-25T19:32:21.906Z,19.70
2018-05-25T19:34:49.485Z,19.60
2018-05-25T19:37:17.086Z,19.60
2018-05-25T19:39:44.667Z,19.50
2018-05-25T19:42:12.986Z,19.30
2018-05-25T19:44:40.541Z,19.30
2018-05-25T19:47:08.201Z,19.20
2018-05-25T19:49:36.828Z,19.10
2018-05-25T19:52:04.751Z,19.00
2018-05-25T19:54:32.467Z,19.00
2018-05-25T19:57:00.818Z,18.90
2018-05-25T19:59:28.377Z,18.80
2018-05-25T20:01:55.955Z,18.80
2018-05-25T20:04:23.657Z,18.70
2018-05-25T20:06:51.262Z,18.60
2018-05-25T20:09:19.639Z,18.60
2018-05-25T20:11:47.982Z,18.50
2018-05-25T20:14:15.534Z,18.40
2018-05-25T20:16:43.122Z,18.50
2018-05-25T20:19:10.678Z,18.40
2018-05-25T20:21:38.282Z,18.40
2018-05-25T20:24:05.928Z,18.40
2018-05-25T20:26:33.530Z,18.40
2018-05-25T20:29:01.089Z,18.40
2018-05-25T20:31:28.680Z,18.40
2018-05-25T20:33:56.247Z,18.30
2018-05-25T20:36:23.811Z,18.30
2018-05-25T20:38:51.388Z,18.30
2018-05-25T20:41:18.943Z,18.20
2018-05-25T20:43:46.507Z,18.10
2018-05-25T20:46:14.094Z,18.10
2018-05-25T20:48:41.650Z,18.10
2018-05-25T20:51:09.203Z,18.00
2018-05-25T20:53:37.558Z,18.00
2018-05-25T20:56:05.118Z,18.00
2018-05-25T20:58:32.862Z,18.10
2018-05-25T21:01:00.503Z,18.20
2018-05-25T21:03:28.063Z,18.20
2018-05-25T21:05:55.627Z,18.20
2018-05-25T21:08:23.222Z,18.20
2018-05-25T21:10:50.793Z,18.20
2018-05-25T21:13:18.371Z,18.20
2018-05-25T21:15:45.951Z,18.20
2018-05-25T21:18:14.276Z,18.20
2018-05-25T21:20:41.836Z,18.10
2018-05-25T21:23:09.440Z,18.10
2018-05-25T21:25:36.994Z,18.10
2018-05-25T21:28:04.562Z,18.10
2018-05-25T21:30:32.166Z,18.10
2018-05-25T21:32:59.730Z,17.90
2018-05-25T21:35:27.286Z,17.90
2018-05-25T21:37:54.870Z,17.70
2018-05-25T21:40:22.419Z,17.60
2018-05-25T21:42:49.974Z,17.60
2018-05-25T21:45:18.322Z,17.40
2018-05-25T21:47:45.874Z,17.40
2018-05-25T21:50:13.417Z,17.40
2018-05-25T21:52:41.763Z,17.30
2018-05-25T21:55:09.316Z,17.20
2018-05-25T21:57:36.885Z,17.30
2018-05-25T22:00:04.494Z,17.30
2018-05-25T22:02:32.055Z,17.20
2018-05-25T22:04:59.610Z,17.10
2018-05-25T22:07:27.191Z,17.00
2018-05-25T22:09:54.734Z,16.90
2018-05-25T22:12:22.345Z,16.90
2018-05-25T22:14:49.903Z,16.80
2018-05-25T22:17:17.458Z,16.80
2018-05-25T22:19:45.019Z,16.90
2018-05-25T22:22:12.606Z,16.90
2018-05-25T22:24:40.155Z,16.80
2018-05-25T22:27:07.706Z,16.70
2018-05-25T22:29:36.069Z,16.50
2018-05-25T22:32:03.683Z,16.50
2018-05-25T22:34:32.003Z,16.50
2018-05-25T22:36:59.586Z,16.50
2018-05-25T22:39:27.143Z,16.50
2018-05-25T22:41:56.169Z,16.40
2018-05-25T22:44:35.772Z,16.40
2018-05-25T22:47:15.825Z,16.20
2018-05-25T22:49:55.684Z,16.10
2018-05-25T22:55:21.314Z,16.20
2018-05-25T22:57:48.882Z,16.20
2018-05-25T23:00:16.435Z,16.10
2018-05-25T23:02:44.028Z,16.10
2018-05-25T23:05:11.601Z,16.20
2018-05-25T23:07:39.156Z,16.10
2018-05-25T23:10:06.776Z,16.10
2018-05-25T23:12:34.343Z,16.00
2018-05-25T23:15:01.902Z,16.00
2018-05-25T23:17:29.528Z,16.00
2018-05-25T23:19:57.856Z,15.90
2018-05-25T23:22:25.425Z,15.80
2018-05-25T23:24:53.028Z,15.80
2018-05-25T23:27:20.591Z,15.70
2018-05-25T23:29:48.175Z,15.70
2018-05-25T23:32:16.542Z,15.60
2018-05-25T23:34:44.130Z,15.50
2018-05-25T23:37:11.686Z,15.50
2018-05-25T23:39:39.305Z,15.50
2018-05-25T23:42:06.894Z,15.40
2018-05-25T23:44:34.466Z,15.30
2018-05-25T23:47:02.062Z,15.30
2018-05-25T23:49:29.647Z,15.20
2018-05-25T23:51:57.224Z,15.20
2018-05-25T23:54:24.838Z,15.20
2018-05-25T23:56:52.430Z,15.20
2018-05-25T23:59:20.011Z,15.10
